Time;durP1;ratioP1;P1;durP2;ratioP2;P2;SDS_P1;SDS_P2;PMS_P1;PMS_P2;Temp;Humidity;BMP_temperature;BMP_pressure;BME280_temperature;BME280_humidity;BME280_pressure;Samples;Min_cycle;Max_cycle;Signal;HPM_P1;HPM_P2
2022/06/22 00:02:08;;;;;;;3.42;1.27;;;;;;;21.32;37.68;99482.06;4425502;32;34107;-82
2022/06/22 00:04:46;;;;;;;2.45;1.08;;;;;;;21.14;37.97;99485.44;4412909;32;33318;-81
2022/06/22 00:07:23;;;;;;;4.60;1.42;;;;;;;21.28;37.81;99498.56;4412378;32;33576;-81
2022/06/22 00:09:56;;;;;;;3.70;1.52;;;;;;;21.31;37.36;99497.97;4437746;32;34290;-81
2022/06/22 00:12:27;;;;;;;2.72;1.33;;;;;;;21.02;37.96;99491.31;4425121;32;34785;-81
2022/06/22 00:15:00;;;;;;;3.10;1.20;;;;;;;20.92;38.39;99489.38;4413347;32;33363;-81
2022/06/22 00:17:37;;;;;;;4.55;1.37;;;;;;;20.96;38.45;99484.09;4424985;32;34619;-81
2022/06/22 00:20:12;;;;;;;5.47;1.10;;;;;;;21.01;38.54;99475.69;4412641;32;34917;-80
2022/06/22 00:22:53;;;;;;;1.70;1.20;;;;;;;20.97;38.88;99483.78;4412643;32;33889;-82
2022/06/22 00:25:24;;;;;;;4.47;1.40;;;;;;;20.87;39.17;99482.97;4424798;32;33501;-79
2022/06/22 00:27:52;;;;;;;4.90;1.35;;;;;;;21.04;38.96;99486.28;4409509;32;32408;-81
2022/06/22 00:30:30;;;;;;;3.67;1.90;;;;;;;21.02;38.98;99491.31;4412249;32;35095;-81
2022/06/22 00:33:14;;;;;;;6.32;2.53;;;;;;;21.01;39.03;99492.44;4412079;32;34721;-81
2022/06/22 00:35:42;;;;;;;6.53;3.12;;;;;;;21.05;38.91;99491.59;4412219;32;32059;-81
2022/06/22 00:38:28;;;;;;;6.72;2.85;;;;;;;20.91;39.13;99489.66;4424414;32;31924;-81
2022/06/22 00:41:02;;;;;;;4.40;2.00;;;;;;;20.90;39.23;99493.56;4426433;32;34948;-81
2022/06/22 00:43:32;;;;;;;4.70;2.12;;;;;;;20.83;39.16;99493.03;4413818;32;33701;-82
2022/06/22 00:46:13;;;;;;;2.95;1.50;;;;;;;20.86;39.08;99498.03;4413722;32;31684;-82
2022/06/22 00:48:42;;;;;;;2.03;1.20;;;;;;;20.82;39.25;99492.19;4413615;32;32404;-80
2022/06/22 00:51:17;;;;;;;4.07;1.50;;;;;;;20.78;39.15;99485.53;4413777;32;35553;-81
2022/06/22 00:53:54;;;;;;;2.75;1.27;;;;;;;20.67;39.52;99481.91;4413829;32;34712;-80
2022/06/22 00:56:34;;;;;;;3.95;1.60;;;;;;;20.70;39.50;99483.31;4426632;32;33730;-81
2022/06/22 00:59:30;;;;;;;2.90;1.37;;;;;;;20.70;39.58;99480.50;4426266;32;34648;-82
2022/06/22 01:02:18;;;;;;;3.62;1.30;;;;;;;20.62;39.57;99483.88;4401035;32;33791;-81
2022/06/22 01:04:53;;;;;;;2.25;1.17;;;;;;;20.70;39.44;99489.72;4411172;32;32622;-81
2022/06/22 01:07:32;;;;;;;3.72;1.52;;;;;;;20.55;39.72;99492.50;4426362;32;33993;-81
2022/06/22 01:10:05;;;;;;;3.80;1.65;;;;;;;20.59;39.63;99498.37;4401116;32;33365;-81
2022/06/22 01:12:47;;;;;;;5.15;1.23;;;;;;;20.57;39.87;99490.28;4426396;32;35208;-82
2022/06/22 01:15:30;;;;;;;2.97;1.40;;;;;;;20.62;39.84;99504.22;4426435;32;34896;-80
2022/06/22 01:18:08;;;;;;;2.47;1.17;;;;;;;20.60;39.89;99500.03;4426361;32;32770;-80
2022/06/22 01:21:25;;;;;;;3.22;1.33;;;;;;;20.50;40.12;99500.88;4413556;32;32542;-82
2022/06/22 01:24:17;;;;;;;4.47;1.40;;;;;;;20.38;40.50;99489.16;4416640;32;33308;-81
2022/06/22 01:26:48;;;;;;;3.15;1.42;;;;;;;20.28;40.53;99481.59;4425995;32;33831;-81
2022/06/22 01:29:24;;;;;;;3.10;1.50;;;;;;;20.46;40.21;99493.34;4413452;32;32966;-81
2022/06/22 01:32:01;;;;;;;2.95;1.30;;;;;;;20.43;40.48;99491.13;4413290;32;34064;-81
2022/06/22 01:34:34;;;;;;;3.00;1.40;;;;;;;20.43;40.60;99494.75;4423470;32;35250;-81
2022/06/22 01:37:05;;;;;;;5.47;1.35;;;;;;;20.35;40.78;99498.03;4410137;32;32381;-82
2022/06/22 01:39:35;;;;;;;4.45;1.62;;;;;;;20.28;40.95;99491.91;4426127;32;33964;-81
2022/06/22 01:42:27;;;;;;;3.87;1.17;;;;;;;20.21;41.13;99491.34;4413610;32;33659;-82
2022/06/22 01:45:06;;;;;;;5.50;1.40;;;;;;;20.13;41.31;99483.56;4413593;32;35231;-81
2022/06/22 01:47:36;;;;;;;4.35;1.60;;;;;;;20.00;41.77;99488.53;4426020;32;33847;-82
2022/06/22 01:50:16;;;;;;;2.97;1.40;;;;;;;20.10;41.40;99492.47;4426012;32;31605;-81
2022/06/22 01:52:57;;;;;;;4.78;1.60;;;;;;;20.05;41.59;99490.50;4425205;32;32206;-81
2022/06/22 01:55:46;;;;;;;4.18;1.70;;;;;;;20.08;41.60;99486.34;4425987;32;34762;-80
2022/06/22 01:58:14;;;;;;;3.47;1.58;;;;;;;20.16;41.48;99478.25;4413143;32;33136;-81
2022/06/22 02:00:53;;;;;;;2.45;1.35;;;;;;;20.13;41.60;99484.41;4417453;32;32906;-81
2022/06/22 02:03:22;;;;;;;4.32;1.40;;;;;;;20.01;42.02;99486.59;4410520;32;32241;-80
2022/06/22 02:06:00;;;;;;;2.08;1.30;;;;;;;19.97;42.24;99502.19;4410734;32;34651;-81
2022/06/22 02:08:37;;;;;;;3.75;1.20;;;;;;;19.94;42.38;99498.00;4410585;32;33848;-81
2022/06/22 02:11:12;;;;;;;3.47;1.23;;;;;;;20.06;42.09;99498.59;4423117;32;33369;-81
2022/06/22 02:13:42;;;;;;;3.58;1.40;;;;;;;20.02;42.20;99491.06;4419197;32;33746;-81
2022/06/22 02:16:15;;;;;;;2.08;1.30;;;;;;;19.87;42.57;99500.22;4410954;32;34959;-81
2022/06/22 02:18:49;;;;;;;2.72;1.33;;;;;;;19.76;43.23;99518.00;4407018;32;33776;-81
2022/06/22 02:21:17;;;;;;;3.35;1.50;;;;;;;19.80;43.05;99524.69;4410414;32;33424;-81
2022/06/22 02:23:47;;;;;;;3.62;1.50;;;;;;;19.80;43.03;99527.47;4419710;32;33041;-81
2022/06/22 02:26:23;;;;;;;3.47;1.62;;;;;;;19.80;43.02;99526.66;4410549;32;32809;-81
2022/06/22 02:28:51;;;;;;;3.75;1.55;;;;;;;19.71;43.22;99526.34;4410301;32;33550;-81
2022/06/22 02:31:20;;;;;;;4.43;1.65;;;;;;;19.71;43.19;99520.75;4416938;32;33919;-81
2022/06/22 02:33:50;;;;;;;2.55;1.40;;;;;;;19.84;42.87;99533.34;4422988;32;34488;-82
2022/06/22 02:36:19;;;;;;;2.53;1.30;;;;;;;19.88;42.84;99532.53;4423396;32;35032;-81
2022/06/22 02:38:50;;;;;;;3.62;1.45;;;;;;;19.88;42.87;99526.97;4394674;32;32545;-81
2022/06/22 02:44:29;;;;;;;3.72;1.50;;;;;;;19.76;43.22;99533.88;4434412;32;33329;-82
2022/06/22 02:46:59;;;;;;;2.75;1.50;;;;;;;19.71;43.26;99538.31;4410126;32;33054;-81
2022/06/22 02:49:35;;;;;;;3.37;1.50;;;;;;;19.63;43.10;99538.00;4424028;32;34571;-81
2022/06/22 02:52:04;;;;;;;2.65;1.40;;;;;;;19.57;43.37;99548.25;4408758;32;32767;-81
2022/06/22 02:54:36;;;;;;;3.47;1.67;;;;;;;19.71;42.78;99548.59;4405604;32;33940;-82
2022/06/22 02:57:26;;;;;;;4.22;1.77;;;;;;;19.63;43.03;99549.97;4422793;32;32973;-82
2022/06/22 02:59:54;;;;;;;3.95;1.65;;;;;;;19.47;43.64;99558.50;4420102;32;32949;-81
2022/06/22 03:02:23;;;;;;;5.00;1.80;;;;;;;19.36;44.02;99563.19;4412839;32;33150;-81
2022/06/22 03:04:54;;;;;;;3.95;1.60;;;;;;;19.40;43.85;99565.16;4413301;32;33612;-81
2022/06/22 03:07:22;;;;;;;3.47;1.40;;;;;;;19.50;43.62;99569.09;4425759;32;34692;-82
2022/06/22 03:09:51;;;;;;;3.65;1.80;;;;;;;19.53;43.28;99568.56;4412944;32;34670;-82
2022/06/22 03:12:18;;;;;;;4.00;1.62;;;;;;;19.60;42.94;99560.81;4412583;32;33200;-82
2022/06/22 03:14:51;;;;;;;3.20;1.50;;;;;;;19.53;43.00;99563.00;4425524;32;33606;-81
2022/06/22 03:17:23;;;;;;;4.03;1.70;;;;;;;19.38;43.36;99572.94;4425580;32;34756;-80
2022/06/22 03:20:04;;;;;;;3.28;1.48;;;;;;;19.34;43.57;99570.97;4412733;32;33156;-82
2022/06/22 03:23:22;;;;;;;4.37;1.98;;;;;;;19.40;43.46;99565.16;4412744;32;31780;-77
2022/06/22 03:26:18;;;;;;;7.47;1.80;;;;;;;19.24;43.80;99566.16;4406091;32;33215;-82
2022/06/22 03:28:54;;;;;;;5.45;1.90;;;;;;;19.27;43.79;99576.75;4422749;32;32989;-82
2022/06/22 03:31:37;;;;;;;3.75;1.73;;;;;;;19.30;43.72;99587.34;4412652;32;32427;-82
2022/06/22 03:34:10;;;;;;;4.93;1.80;;;;;;;19.37;43.82;99581.56;4412907;32;33515;-82
2022/06/22 03:36:45;;;;;;;4.53;1.90;;;;;;;19.30;43.89;99581.78;4413317;32;33787;-83
2022/06/22 03:39:25;;;;;;;3.80;1.75;;;;;;;19.26;44.07;99571.47;4425171;32;34424;-77
2022/06/22 03:42:02;;;;;;;8.63;2.30;;;;;;;19.37;43.88;99576.81;4425985;32;34352;-80
2022/06/22 03:44:35;;;;;;;3.65;1.70;;;;;;;19.22;44.11;99562.81;4425182;32;33396;-79
2022/06/22 03:47:13;;;;;;;3.03;1.73;;;;;;;19.28;44.16;99570.09;4425217;32;34610;-80
2022/06/22 03:49:53;;;;;;;4.07;1.67;;;;;;;19.26;44.13;99563.97;4425282;32;34379;-80
2022/06/22 03:52:31;;;;;;;6.50;1.90;;;;;;;19.18;44.80;99575.59;4425128;32;32815;-80
2022/06/22 03:55:11;;;;;;;5.35;1.90;;;;;;;19.35;44.38;99561.50;4422998;32;31798;-79
2022/06/22 03:57:45;;;;;;;5.62;1.73;;;;;;;19.46;44.09;99557.66;4425202;32;33605;-81
2022/06/22 04:00:14;;;;;;;3.03;1.70;;;;;;;19.32;44.53;99542.56;4412521;32;34384;-80
2022/06/22 04:02:45;;;;;;;5.53;1.60;;;;;;;19.43;44.53;99530.38;4425157;32;33781;-80
2022/06/22 04:05:24;;;;;;;3.62;1.70;;;;;;;19.76;43.26;99526.34;4425099;32;33393;-80
2022/06/22 04:07:52;;;;;;;3.45;1.60;;;;;;;19.37;44.30;99529.50;4425256;32;33747;-80
2022/06/22 04:10:29;;;;;;;3.62;1.75;;;;;;;19.56;43.95;99515.13;4425148;32;35130;-81
2022/06/22 04:13:11;;;;;;;4.32;1.90;;;;;;;19.65;43.66;99516.28;4412885;32;33550;-80
2022/06/22 04:15:51;;;;;;;3.72;1.87;;;;;;;19.52;44.04;99512.06;4411712;32;31849;-80
2022/06/22 04:18:41;;;;;;;5.20;1.90;;;;;;;19.55;44.28;99519.03;4412202;32;32309;-80
2022/06/22 04:21:15;;;;;;;3.92;1.85;;;;;;;19.69;44.39;99515.47;4424885;32;35193;-80
2022/06/22 04:23:46;;;;;;;3.87;1.52;;;;;;;19.66;44.26;99516.00;4412266;32;33234;-80
2022/06/22 04:26:30;;;;;;;4.15;1.70;;;;;;;19.70;43.71;99513.53;4412176;32;31657;-80
2022/06/22 04:29:06;;;;;;;4.72;1.55;;;;;;;19.72;43.59;99511.31;4411993;32;32500;-80
2022/06/22 04:31:36;;;;;;;3.85;1.70;;;;;;;19.84;43.38;99514.69;4411899;32;33869;-81
2022/06/22 04:34:08;;;;;;;4.85;1.55;;;;;;;19.77;43.52;99521.63;4411903;32;32454;-80
2022/06/22 04:36:43;;;;;;;4.57;1.80;;;;;;;19.82;43.54;99516.91;4424751;32;33329;-80
2022/06/22 04:39:20;;;;;;;5.97;1.90;;;;;;;19.96;43.77;99511.66;4424608;32;33807;-80
2022/06/22 04:41:52;;;;;;;5.03;1.85;;;;;;;19.93;44.39;99515.81;4437207;32;33001;-80
2022/06/22 04:44:26;;;;;;;7.28;2.33;;;;;;;20.04;43.74;99514.75;4411826;32;32423;-79
2022/06/22 04:46:59;;;;;;;6.18;1.90;;;;;;;20.19;43.21;99521.44;4399342;32;31695;-80
2022/06/22 04:49:58;;;;;;;6.43;1.80;;;;;;;20.13;43.39;99530.94;4425067;32;34235;-81
2022/06/22 04:52:41;;;;;;;4.53;2.00;;;;;;;20.27;43.17;99532.03;4412046;32;34999;-80
2022/06/22 04:55:22;;;;;;;5.40;1.87;;;;;;;20.36;43.38;99534.00;4399575;32;32542;-80
2022/06/22 04:57:55;;;;;;;4.47;1.75;;;;;;;20.53;43.55;99536.56;4424809;32;33434;-80
2022/06/22 05:00:26;;;;;;;5.62;2.05;;;;;;;20.60;42.95;99537.13;4424653;32;34351;-80
2022/06/22 05:03:03;;;;;;;5.68;1.75;;;;;;;20.65;42.66;99550.25;4411952;32;34029;-81
2022/06/22 05:05:35;;;;;;;8.95;2.00;;;;;;;20.48;42.74;99544.94;4411561;32;32485;-80
2022/06/22 05:08:17;;;;;;;5.68;1.87;;;;;;;20.45;42.83;99551.06;4424345;32;33134;-81
2022/06/22 05:11:14;;;;;;;5.80;1.70;;;;;;;20.74;42.51;99558.87;4437109;32;34709;-80
2022/06/22 05:13:45;;;;;;;6.37;1.80;;;;;;;20.83;42.61;99548.81;4424156;32;34464;-81
2022/06/22 05:16:20;;;;;;;4.78;1.70;;;;;;;20.96;42.31;99559.41;4424241;32;33837;-81
2022/06/22 05:18:50;;;;;;;2.85;1.48;;;;;;;21.20;41.47;99559.66;4438010;32;33011;-80
2022/06/22 05:21:38;;;;;;;2.95;1.30;;;;;;;21.21;41.55;99561.34;4411694;32;34580;-80
2022/06/22 05:24:23;;;;;;;3.65;1.73;;;;;;;20.93;41.95;99563.59;4411713;32;34432;-81
2022/06/22 05:26:53;;;;;;;2.78;1.37;;;;;;;21.15;42.11;99579.22;4425859;32;34107;-80
2022/06/22 05:29:30;;;;;;;2.87;1.33;;;;;;;21.21;42.90;99584.53;4413530;32;32759;-81
2022/06/22 05:32:02;;;;;;;3.08;1.67;;;;;;;21.30;41.38;99582.84;4426132;32;33712;-80
2022/06/22 05:34:34;;;;;;;5.43;1.70;;;;;;;21.04;41.33;99575.59;4426024;32;34407;-81
2022/06/22 05:37:11;;;;;;;4.07;1.80;;;;;;;21.22;41.52;99568.63;4413630;32;34079;-81
2022/06/22 05:39:39;;;;;;;6.90;1.92;;;;;;;21.61;41.02;99578.00;4413514;32;32824;-81
2022/06/22 05:42:09;;;;;;;4.18;1.52;;;;;;;21.68;41.37;99572.13;4413335;32;32371;-80
2022/06/22 05:44:39;;;;;;;2.47;1.30;;;;;;;21.83;40.67;99568.44;4413598;32;35461;-80
2022/06/22 05:47:14;;;;;;;5.55;1.60;;;;;;;21.80;40.23;99577.38;4413489;32;34518;-81
2022/06/22 05:50:46;;;;;;;5.05;1.60;;;;;;;22.03;39.61;99582.34;4426061;32;33396;-81
2022/06/22 05:53:25;;;;;;;6.90;2.22;;;;;;;22.33;39.75;99586.91;4431027;32;33755;-80
2022/06/22 05:56:09;;;;;;;4.30;1.83;;;;;;;22.26;38.60;99581.63;4410760;32;34339;-80
2022/06/22 05:59:01;;;;;;;3.03;1.50;;;;;;;22.45;38.31;99575.38;4411314;32;33388;-79
2022/06/22 06:02:07;;;;;;;4.57;1.90;;;;;;;22.49;37.91;99579.25;4429107;32;33148;-81
2022/06/22 06:04:42;;;;;;;6.22;2.15;;;;;;;22.55;38.74;99583.69;4425774;32;33810;-81
2022/06/22 06:07:16;;;;;;;3.17;1.37;;;;;;;22.79;38.37;99589.41;4425942;32;35330;-81
2022/06/22 06:09:48;;;;;;;8.88;1.60;;;;;;;22.86;37.81;99593.53;4412118;32;33420;-81
2022/06/22 06:12:22;;;;;;;6.57;1.65;;;;;;;22.95;37.67;99591.78;4412924;32;33389;-80
2022/06/22 06:14:57;;;;;;;5.03;1.40;;;;;;;22.96;37.92;99592.62;4411954;32;33529;-79
2022/06/22 06:17:32;;;;;;;4.75;1.55;;;;;;;23.27;37.10;99579.19;4425162;32;34876;-79
2022/06/22 06:20:00;;;;;;;4.18;1.50;;;;;;;22.99;37.21;99592.03;4425504;32;33821;-80
2022/06/22 06:22:35;;;;;;;6.97;1.65;;;;;;;22.82;37.31;99588.81;4425180;32;33415;-81
2022/06/22 06:28:04;;;;;;;6.20;1.42;;;;;;;23.34;36.66;99585.28;4412596;32;32906;-80
2022/06/22 06:30:38;;;;;;;7.43;3.15;;;;;;;23.42;37.40;99600.59;4425743;32;33836;-77
2022/06/22 06:33:30;;;;;;;4.03;1.25;;;;;;;23.36;38.03;99585.00;4425643;32;33836;-78
2022/06/22 06:36:22;;;;;;;5.28;1.92;;;;;;;23.15;36.44;99587.97;4412964;32;33241;-77
2022/06/22 06:38:58;;;;;;;6.07;1.65;;;;;;;23.31;36.17;99571.88;4425149;32;34450;-78
2022/06/22 06:41:33;;;;;;;8.50;2.83;;;;;;;23.22;36.37;99580.09;4400882;32;33471;-78
2022/06/22 06:44:13;;;;;;;21.27;7.80;;;;;;;23.21;36.85;99578.41;4438389;32;32843;-77
2022/06/22 06:47:05;;;;;;;8.07;2.75;;;;;;;23.53;37.56;99575.00;4425661;32;34400;-78
2022/06/22 06:50:07;;;;;;;6.78;1.60;;;;;;;23.66;36.54;99570.66;4415062;32;33063;-78
2022/06/22 06:52:55;;;;;;;4.20;1.40;;;;;;;23.79;36.25;99571.91;4425495;32;33955;-78
2022/06/22 06:56:24;;;;;;;4.70;1.50;;;;;;;23.77;34.85;99580.63;4425342;32;31870;-78
2022/06/22 06:59:00;;;;;;;5.15;1.50;;;;;;;23.72;34.90;99588.25;4336526;32;33259;-77
2022/06/22 07:01:37;;;;;;;3.85;1.50;;;;;;;23.70;34.56;99577.34;4361038;32;35221;-77
2022/06/22 07:04:17;;;;;;;5.05;1.40;;;;;;;23.73;33.95;99582.34;4399699;32;33824;-78
2022/06/22 07:06:47;;;;;;;4.15;1.40;;;;;;;23.97;34.57;99582.34;4412912;32;32165;-77
2022/06/22 07:09:36;;;;;;;5.07;2.33;;;;;;;23.93;35.77;99578.47;4412468;32;32346;-80
2022/06/22 07:12:18;;;;;;;6.30;2.33;;;;;;;24.13;36.24;99568.94;4425272;32;34292;-81
2022/06/22 07:14:51;;;;;;;4.10;1.60;;;;;;;24.41;34.98;99550.34;4413273;32;34666;-80
2022/06/22 07:17:20;;;;;;;6.72;1.40;;;;;;;24.40;34.83;99557.09;4406783;32;32724;-80
2022/06/22 07:19:58;;;;;;;16.45;2.08;;;;;;;24.39;33.06;99547.00;4412510;32;32435;-81
2022/06/22 07:22:40;;;;;;;7.30;2.40;;;;;;;24.53;33.75;99542.28;4426183;32;34247;-80
2022/06/22 07:25:23;;;;;;;7.35;2.78;;;;;;;24.23;33.56;99550.00;4425503;32;34413;-81
2022/06/22 07:28:10;;;;;;;4.85;1.45;;;;;;;24.53;34.72;99540.31;4409925;32;31835;-81
2022/06/22 07:30:47;;;;;;;18.37;3.40;;;;;;;24.32;32.47;99541.75;4412348;32;32450;-80
2022/06/22 07:33:32;;;;;;;17.35;2.80;;;;;;;24.65;33.36;99550.25;4425349;32;35336;-81
2022/06/22 07:36:05;;;;;;;11.00;2.47;;;;;;;24.78;32.22;99546.63;4425049;32;34169;-81
2022/06/22 07:38:43;;;;;;;4.55;1.52;;;;;;;24.76;31.57;99546.09;4413072;32;33455;-80
2022/06/22 07:41:19;;;;;;;5.57;1.60;;;;;;;24.72;31.32;99553.47;4438880;32;33583;-80
2022/06/22 07:43:49;;;;;;;5.57;1.55;;;;;;;24.65;31.33;99550.25;4425714;32;34252;-81
2022/06/22 07:46:29;;;;;;;5.00;1.60;;;;;;;24.84;31.18;99551.03;4425077;32;33871;-81
2022/06/22 07:49:14;;;;;;;3.92;1.30;;;;;;;25.08;31.20;99539.69;4437699;32;33906;-80
2022/06/22 07:52:08;;;;;;;4.03;1.45;;;;;;;25.02;30.52;99538.94;4412486;32;33823;-80
2022/06/22 07:54:41;;;;;;;4.47;2.00;;;;;;;25.30;31.27;99545.47;4412427;32;35329;-81
2022/06/22 07:57:20;;;;;;;2.33;1.23;;;;;;;25.18;32.17;99553.56;4438741;32;33678;-79
2022/06/22 07:59:58;;;;;;;3.17;1.20;;;;;;;25.29;30.84;99538.19;4417021;32;33888;-80
2022/06/22 08:02:43;;;;;;;6.45;1.30;;;;;;;25.36;31.08;99548.97;4397765;32;32848;-80
2022/06/22 08:05:20;;;;;;;4.70;1.17;;;;;;;25.43;30.84;99538.16;4416313;32;34402;-80
2022/06/22 08:08:02;;;;;;;5.25;1.80;;;;;;;25.37;31.43;99533.78;4403733;32;33878;-80
2022/06/22 08:10:40;;;;;;;3.37;1.30;;;;;;;25.35;30.52;99528.47;4405330;32;32216;-81
2022/06/22 08:13:17;;;;;;;2.87;1.17;;;;;;;25.44;29.64;99525.78;4431093;32;33861;-81
2022/06/22 08:15:50;;;;;;;3.00;1.08;;;;;;;25.73;29.90;99520.72;4416304;32;33891;-80
2022/06/22 08:18:21;;;;;;;3.80;1.10;;;;;;;25.53;28.52;99523.94;4397079;32;33728;-80
2022/06/22 08:20:52;;;;;;;3.47;1.10;;;;;;;25.85;28.43;99521.03;4409779;32;33018;-81
2022/06/22 08:23:24;;;;;;;1.95;0.98;;;;;;;26.04;28.89;99520.03;4409330;32;33835;-80
2022/06/22 08:26:06;;;;;;;1.60;0.90;;;;;;;26.09;28.33;99517.94;4397839;32;32929;-82
2022/06/22 08:28:38;;;;;;;2.60;1.20;;;;;;;26.04;28.92;99526.50;4409198;32;33726;-80
2022/06/22 08:31:08;;;;;;;2.80;1.10;;;;;;;26.25;28.60;99522.09;4397013;32;32961;-81
2022/06/22 08:33:52;;;;;;;4.47;1.10;;;;;;;26.41;29.13;99511.34;4397268;32;33613;-81
2022/06/22 08:36:29;;;;;;;3.80;0.90;;;;;;;26.54;26.56;99510.47;4397593;32;34425;-81
2022/06/22 08:39:13;;;;;;;3.70;1.20;;;;;;;26.43;25.78;99516.66;4409438;32;34043;-80
2022/06/22 08:41:47;;;;;;;1.30;0.90;;;;;;;26.67;26.31;99508.72;4409696;32;34218;-81
2022/06/22 08:44:15;;;;;;;3.72;1.08;;;;;;;26.72;25.97;99510.56;4409387;32;34349;-80
2022/06/22 08:47:06;;;;;;;3.37;1.12;;;;;;;26.95;26.18;99511.38;4409169;32;32874;-81
2022/06/22 08:49:44;;;;;;;1.60;0.80;;;;;;;26.66;25.63;99504.22;4396691;32;33475;-81
2022/06/22 08:52:20;;;;;;;4.22;1.08;;;;;;;26.87;25.79;99510.19;4396644;32;31912;-81
2022/06/22 08:54:52;;;;;;;3.58;0.90;;;;;;;27.14;26.37;99510.06;4396416;32;33809;-80
2022/06/22 08:57:30;;;;;;;7.12;0.90;;;;;;;26.96;24.08;99513.06;4409260;32;35488;-81
2022/06/22 09:00:24;;;;;;;1.83;0.90;;;;;;;27.01;23.58;99510.12;4408963;32;33514;-81
2022/06/22 09:03:17;;;;;;;2.08;0.88;;;;;;;26.92;23.85;99522.16;4398963;32;33257;-80
2022/06/22 09:06:07;;;;;;;2.28;0.70;;;;;;;26.99;23.15;99513.28;4407462;32;33631;-81
2022/06/22 09:08:53;;;;;;;2.80;0.80;;;;;;;27.20;22.51;99505.94;4398336;32;33028;-81
2022/06/22 09:11:57;;;;;;;1.92;1.00;;;;;;;27.65;22.26;99510.63;4400227;32;33076;-80
2022/06/22 09:14:31;;;;;;;0.93;0.65;;;;;;;27.78;22.30;99512.50;4411291;32;33894;-81
2022/06/22 09:16:59;;;;;;;2.20;0.80;;;;;;;27.60;20.66;99525.69;4423168;32;32256;-80
2022/06/22 09:19:43;;;;;;;1.67;0.73;;;;;;;27.92;21.22;99523.66;4398371;32;32966;-80
2022/06/22 09:22:33;;;;;;;2.03;0.93;;;;;;;28.22;20.49;99511.44;4385892;32;32719;-76
2022/06/22 09:25:07;;;;;;;1.50;0.80;;;;;;;28.53;20.23;99512.13;4424522;32;33575;-75
2022/06/22 09:27:55;;;;;;;2.33;0.70;;;;;;;28.56;21.66;99505.00;4424493;32;33883;-77
2022/06/22 09:30:38;;;;;;;2.80;0.90;;;;;;;28.52;19.26;99496.34;4406342;32;34567;-78
2022/06/22 09:34:01;;;;;;;2.05;0.85;;;;;;;28.83;21.10;99492.50;4416342;32;34801;-77
2022/06/22 09:37:08;;;;;;;3.97;1.05;;;;;;;29.08;20.89;99494.44;4399270;32;33182;-78
2022/06/22 09:40:10;;;;;;;1.42;0.80;;;;;;;28.96;20.27;99485.84;4410330;32;32258;-78
2022/06/22 09:43:16;;;;;;;2.97;0.85;;;;;;;29.07;20.42;99486.31;4424631;32;35280;-75
2022/06/22 09:46:07;;;;;;;2.58;0.80;;;;;;;28.93;20.32;99494.97;4424764;32;33615;-76
2022/06/22 09:49:05;;;;;;;3.28;0.80;;;;;;;28.88;19.83;99497.97;4431469;32;34173;-75
2022/06/22 09:58:04;;;;;;;2.75;0.75;;;;;;;29.31;19.61;99499.84;4417217;32;32408;-74
2022/06/22 10:01:18;;;;;;;2.95;1.33;;;;;;;29.44;19.65;99499.66;4421356;32;33413;-78
2022/06/22 10:09:00;;;;;;;3.25;1.15;;;;;;;29.91;20.25;99484.59;4402267;32;33684;-79
2022/06/22 10:12:09;;;;;;;2.62;0.98;;;;;;;30.18;19.07;99484.13;4410788;32;33959;-79
2022/06/22 10:15:57;;;;;;;2.37;0.80;;;;;;;30.45;18.25;99477.06;4399930;32;32815;-78
2022/06/22 10:19:16;;;;;;;2.67;0.93;;;;;;;30.61;17.34;99478.09;4398355;32;32631;-78
2022/06/22 10:22:19;;;;;;;3.15;0.93;;;;;;;30.87;17.92;99486.34;4376351;32;35482;-78
2022/06/22 10:25:52;;;;;;;2.65;0.88;;;;;;;31.00;19.68;99490.87;4364229;32;33793;-78
2022/06/22 10:29:29;;;;;;;2.05;0.75;;;;;;;30.99;18.96;99494.06;4362810;32;33535;-79
2022/06/22 10:32:25;;;;;;;2.45;0.70;;;;;;;31.40;19.35;99491.09;4354355;32;32631;-78
2022/06/22 10:35:40;;;;;;;7.75;0.98;;;;;;;31.63;18.44;99482.13;4357266;32;32548;-78
2022/06/22 10:38:56;;;;;;;1.70;0.73;;;;;;;31.83;18.56;99489.75;4364677;32;34145;-79
2022/06/22 10:48:54;;;;;;;34.08;25.27;;;;;;;31.86;17.93;99491.84;4375528;32;34442;-76
2022/06/22 10:56:13;;;;;;;12.95;9.30;;;;;;;32.35;18.34;99480.44;4405698;32;32922;-76
2022/06/22 10:58:55;;;;;;;7.47;3.90;;;;;;;32.55;18.22;99487.09;4410055;32;33670;-76
2022/06/22 11:02:02;;;;;;;4.18;1.83;;;;;;;32.53;17.74;99483.78;4407614;32;32778;-75
2022/06/22 11:05:12;;;;;;;7.25;2.90;;;;;;;32.77;17.69;99480.91;4418469;32;33226;-76
2022/06/22 11:07:45;;;;;;;4.78;2.78;;;;;;;32.64;17.54;99479.25;4426218;32;34125;-77
2022/06/22 11:10:24;;;;;;;3.45;1.70;;;;;;;32.75;17.86;99483.25;4425595;32;33812;-77
2022/06/22 11:13:21;;;;;;;3.80;1.08;;;;;;;32.76;17.81;99475.56;4438141;32;34364;-74
2022/06/22 11:16:11;;;;;;;3.78;1.40;;;;;;;32.49;17.15;99480.06;4433832;32;33208;-79
2022/06/22 11:21:57;;;;;;;6.55;1.70;;;;;;;32.91;18.30;99478.47;4420591;32;32299;-79
2022/06/22 11:25:06;;;;;;;4.60;1.27;;;;;;;33.19;18.80;99481.25;4411874;32;33753;-78
2022/06/22 11:31:48;;;;;;;3.62;1.12;;;;;;;33.51;18.07;99472.75;4379856;32;32078;-78
2022/06/22 11:34:40;;;;;;;2.45;1.08;;;;;;;33.27;17.56;99474.56;4365558;32;32218;-79
2022/06/22 11:37:49;;;;;;;2.83;0.90;;;;;;;33.02;17.73;99464.53;4378251;32;34158;-79
2022/06/22 11:40:49;;;;;;;2.58;1.05;;;;;;;32.57;17.73;99467.69;4358517;32;33333;-79
2022/06/22 11:43:44;;;;;;;3.40;1.20;;;;;;;33.25;18.35;99451.34;4378081;32;33908;-79
2022/06/22 11:49:40;;;;;;;1.87;1.05;;;;;;;33.49;18.93;99430.44;4377288;32;34006;-78
2022/06/22 11:52:22;;;;;;;2.65;1.17;;;;;;;33.58;18.23;99435.94;4437254;32;34676;-79
2022/06/22 11:54:58;;;;;;;3.78;1.30;;;;;;;33.33;19.01;99424.75;4424123;32;34059;-78
2022/06/22 11:57:51;;;;;;;2.03;1.10;;;;;;;33.16;19.22;99427.94;4411470;32;32359;-79
2022/06/22 12:00:39;;;;;;;4.80;1.30;;;;;;;32.71;18.35;99434.00;4424235;32;34189;-79
2022/06/22 12:03:35;;;;;;;5.60;1.60;;;;;;;33.19;18.55;99429.22;4411562;32;33372;-79
2022/06/22 12:06:43;;;;;;;5.25;1.40;;;;;;;33.18;19.26;99434.06;4424098;32;33400;-79
2022/06/22 12:10:14;;;;;;;3.50;1.10;;;;;;;32.91;18.13;99441.50;4434044;32;33636;-78
2022/06/22 12:13:15;;;;;;;3.05;1.30;;;;;;;33.05;18.37;99424.84;4437846;32;34476;-78
2022/06/22 12:16:20;;;;;;;3.22;1.27;;;;;;;33.12;18.71;99432.72;4423652;32;34151;-79
2022/06/22 12:19:36;;;;;;;2.65;1.10;;;;;;;33.28;17.90;99422.19;4438159;32;32947;-78
2022/06/22 12:22:35;;;;;;;4.03;1.40;;;;;;;33.44;17.58;99425.03;4411145;32;32328;-79
2022/06/22 12:25:35;;;;;;;3.45;1.40;;;;;;;33.46;18.25;99422.66;4409045;32;34307;-78
2022/06/22 12:28:22;;;;;;;2.10;1.10;;;;;;;32.63;18.54;99417.94;4409586;32;34231;-79
2022/06/22 12:31:16;;;;;;;3.85;1.15;;;;;;;32.39;18.23;99411.19;4397097;32;33993;-77
2022/06/22 12:34:09;;;;;;;4.85;1.30;;;;;;;33.08;18.74;99423.28;4397673;32;34586;-77
2022/06/22 12:36:44;;;;;;;2.00;1.02;;;;;;;33.02;17.89;99419.03;4422596;32;34583;-78
2022/06/22 12:39:25;;;;;;;4.12;1.40;;;;;;;32.83;18.42;99411.22;4397042;32;34055;-77
2022/06/22 12:42:03;;;;;;;5.40;1.60;;;;;;;33.18;19.41;99408.47;4437702;32;33039;-78
2022/06/22 12:44:55;;;;;;;4.62;1.50;;;;;;;33.20;19.25;99410.97;4411514;32;34017;-77
2022/06/22 12:48:04;;;;;;;3.05;1.58;;;;;;;33.34;19.65;99397.13;4426032;32;34717;-78
2022/06/22 12:51:10;;;;;;;4.37;1.48;;;;;;;32.96;20.16;99398.59;4414296;32;32893;-78
2022/06/22 12:53:44;;;;;;;5.25;1.60;;;;;;;33.22;19.73;99394.34;4430232;32;33277;-79
2022/06/22 12:56:15;;;;;;;4.70;1.25;;;;;;;33.56;19.96;99393.63;4432600;32;33418;-79
2022/06/22 12:58:57;;;;;;;5.15;1.60;;;;;;;33.52;19.36;99391.87;4436383;32;34590;-79
2022/06/22 13:01:45;;;;;;;3.60;1.60;;;;;;;33.46;19.73;99379.12;4411319;32;34855;-78
2022/06/22 13:04:37;;;;;;;6.00;1.40;;;;;;;33.62;19.49;99388.47;4411106;32;31791;-79
2022/06/22 13:07:32;;;;;;;4.97;1.40;;;;;;;33.64;19.43;99386.91;4411612;32;33805;-79
2022/06/22 13:10:25;;;;;;;6.70;1.52;;;;;;;33.65;19.70;99384.88;4425280;32;35361;-78
2022/06/22 13:13:28;;;;;;;5.28;1.50;;;;;;;33.60;18.80;99388.84;4425287;32;34707;-79
2022/06/22 13:16:28;;;;;;;5.22;1.70;;;;;;;33.46;19.26;99370.59;4424002;32;33052;-79
2022/06/22 13:20:11;;;;;;;4.43;1.45;;;;;;;33.58;19.58;99371.31;4424188;32;33717;-79
2022/06/22 13:23:22;;;;;;;3.53;1.20;;;;;;;33.69;18.48;99368.72;4424349;32;32916;-78
2022/06/22 13:26:23;;;;;;;2.75;1.30;;;;;;;32.67;18.37;99371.38;4409892;32;34255;-78
2022/06/22 13:29:24;;;;;;;4.40;1.45;;;;;;;33.05;18.56;99367.13;4424224;32;34320;-79